Time;durP1;ratioP1;P1;durP2;ratioP2;P2;SDS_P1;SDS_P2;PMS_P1;PMS_P2;Temp;Humidity;BMP_temperature;BMP_pressure;BME280_temperature;BME280_humidity;BME280_pressure;Samples;Min_cycle;Max_cycle;Signal;HPM_P1;HPM_P2
2021/04/11 00:04:35;;;;;;;1.87;1.40;;;18.10;50.50;;;;;;10418018;28;20209;-68
2021/04/11 00:09:56;;;;;;;1.40;1.27;;;18.10;50.50;;;;;;10416944;28;20252;-68
2021/04/11 00:15:19;;;;;;;1.30;1.20;;;18.10;50.70;;;;;;10446919;22;20221;-59
2021/04/11 00:20:41;;;;;;;1.70;1.37;;;18.10;50.70;;;;;;10427897;28;20225;-59
2021/04/11 00:26:04;;;;;;;1.70;1.10;;;18.10;50.70;;;;;;10415869;28;20189;-56
2021/04/11 00:31:26;;;;;;;1.23;1.13;;;18.10;50.70;;;;;;10437000;28;20213;-59
2021/04/11 00:36:50;;;;;;;1.50;1.20;;;18.10;50.70;;;;;;10419693;28;20217;-60
2021/04/11 00:42:18;;;;;;;1.40;1.20;;;18.10;50.80;;;;;;10414656;28;20222;-60
2021/04/11 00:47:41;;;;;;;1.30;1.10;;;18.10;50.90;;;;;;10424219;28;20201;-60
2021/04/11 00:53:05;;;;;;;1.10;1.00;;;18.10;50.80;;;;;;10422765;28;20214;-60
2021/04/11 00:58:27;;;;;;;1.23;1.03;;;18.10;50.80;;;;;;10414403;28;20210;-59
2021/04/11 01:03:51;;;;;;;1.60;1.40;;;18.10;50.90;;;;;;10414697;28;20240;-60
2021/04/11 01:09:18;;;;;;;1.17;0.97;;;18.10;51.00;;;;;;10414881;28;20209;-61
2021/04/11 01:14:40;;;;;;;1.13;1.03;;;18.10;51.00;;;;;;10415139;28;20229;-59
2021/04/11 01:20:05;;;;;;;1.50;1.40;;;18.10;50.90;;;;;;10415940;28;20197;-60
2021/04/11 01:25:31;;;;;;;1.53;1.10;;;18.10;51.10;;;;;;10430176;28;20194;-60
2021/04/11 01:30:55;;;;;;;1.20;1.10;;;18.10;51.70;;;;;;10412752;28;20293;-58
2021/04/11 01:36:21;;;;;;;1.20;1.10;;;18.10;51.10;;;;;;10413168;28;20635;-60
2021/04/11 01:41:45;;;;;;;1.20;1.10;;;18.10;51.10;;;;;;10411166;28;20217;-60
2021/04/11 01:47:08;;;;;;;1.83;1.10;;;18.10;51.20;;;;;;10412738;28;20190;-60
2021/04/11 01:52:32;;;;;;;1.37;1.27;;;18.10;51.30;;;;;;10413188;28;20595;-59
2021/04/11 01:57:56;;;;;;;1.33;1.23;;;18.10;51.20;;;;;;10439818;28;20221;-60
2021/04/11 02:03:19;;;;;;;1.40;1.30;;;18.10;51.20;;;;;;10443840;28;20221;-60
2021/04/11 02:08:46;;;;;;;1.70;1.50;;;18.10;51.30;;;;;;10411366;28;20197;-59
2021/04/11 02:14:10;;;;;;;1.60;1.50;;;18.00;51.30;;;;;;10410979;28;20225;-60
2021/04/11 02:19:32;;;;;;;1.30;1.20;;;18.10;51.40;;;;;;10410883;28;20197;-60
2021/04/11 02:24:54;;;;;;;2.37;1.47;;;18.10;51.30;;;;;;10411628;28;20663;-58
2021/04/11 02:30:19;;;;;;;2.53;1.43;;;18.10;51.40;;;;;;10429249;28;20271;-55
2021/04/11 02:35:40;;;;;;;1.47;1.37;;;18.00;51.50;;;;;;10451890;28;20230;-59
2021/04/11 02:41:02;;;;;;;1.70;1.30;;;18.10;51.50;;;;;;10450667;28;20213;-56
2021/04/11 02:46:25;;;;;;;1.43;1.33;;;18.00;51.50;;;;;;10427010;28;20201;-59
2021/04/11 02:51:49;;;;;;;1.50;1.40;;;18.00;51.40;;;;;;10431798;28;20213;-58
2021/04/11 02:57:10;;;;;;;1.53;1.43;;;18.10;51.60;;;;;;10427615;28;20232;-60
2021/04/11 03:02:33;;;;;;;1.40;1.30;;;18.00;51.60;;;;;;10408429;28;20232;-60
2021/04/11 03:07:58;;;;;;;2.20;1.80;;;18.00;51.70;;;;;;10409798;28;20244;-60
2021/04/11 03:13:21;;;;;;;1.80;1.70;;;18.00;51.60;;;;;;10442221;28;20220;-60
2021/04/11 03:18:44;;;;;;;1.73;1.63;;;18.00;51.70;;;;;;10410146;28;20210;-57
2021/04/11 03:24:06;;;;;;;1.70;1.60;;;18.00;51.70;;;;;;10425824;28;20556;-60
2021/04/11 03:29:34;;;;;;;1.80;1.70;;;18.00;51.80;;;;;;10409591;28;20201;-60
2021/04/11 03:34:59;;;;;;;1.70;1.60;;;18.00;51.80;;;;;;10437128;28;20897;-60
2021/04/11 03:40:26;;;;;;;2.10;1.90;;;18.00;51.80;;;;;;10418969;28;20229;-60
2021/04/11 03:45:48;;;;;;;2.20;2.00;;;18.00;52.40;;;;;;10449176;28;20196;-60
2021/04/11 03:51:18;;;;;;;1.90;1.80;;;18.00;51.90;;;;;;10447537;28;20216;-59
2021/04/11 03:56:43;;;;;;;1.93;1.80;;;18.00;51.90;;;;;;10423447;28;20218;-60
2021/04/11 04:02:06;;;;;;;2.40;2.20;;;18.00;51.90;;;;;;10408865;28;20240;-60
2021/04/11 04:07:44;;;;;;;3.33;2.40;;;17.90;51.90;;;;;;10411147;28;20201;-60
2021/04/11 04:13:10;;;;;;;2.30;2.10;;;18.00;52.00;;;;;;10424908;28;20706;-58
2021/04/11 04:18:51;;;;;;;1.80;1.70;;;18.00;52.10;;;;;;10428757;28;20702;-60
2021/04/11 04:24:27;;;;;;;1.83;1.73;;;18.00;52.10;;;;;;10417317;28;20236;-60
2021/04/11 04:30:03;;;;;;;2.57;1.90;;;18.00;52.20;;;;;;10414836;28;20194;-60
2021/04/11 04:35:36;;;;;;;2.87;2.40;;;18.00;52.10;;;;;;10425680;28;20214;-60
2021/04/11 04:41:09;;;;;;;2.20;2.00;;;18.00;52.10;;;;;;10444320;28;20678;-61
2021/04/11 04:46:38;;;;;;;2.30;2.10;;;18.00;52.10;;;;;;10416029;28;20197;-60
2021/04/11 04:52:04;;;;;;;2.40;2.20;;;18.00;52.20;;;;;;10456402;28;20617;-60
2021/04/11 04:57:32;;;;;;;2.50;2.30;;;18.00;52.20;;;;;;10425072;28;20709;-61
2021/04/11 05:03:01;;;;;;;2.57;2.37;;;18.00;52.20;;;;;;10430877;28;20239;-61
2021/04/11 05:08:30;;;;;;;2.30;2.10;;;18.00;52.30;;;;;;10433418;28;20679;-57
2021/04/11 05:13:58;;;;;;;2.47;2.23;;;18.00;52.30;;;;;;10436012;28;20229;-59
2021/04/11 05:19:24;;;;;;;2.83;2.20;;;18.00;52.20;;;;;;10451440;28;20251;-58
2021/04/11 05:24:49;;;;;;;2.80;2.60;;;18.10;52.20;;;;;;10423554;28;20575;-59
2021/04/11 05:30:16;;;;;;;2.87;2.67;;;18.10;52.20;;;;;;10408728;28;20229;-58
2021/04/11 05:35:38;;;;;;;3.17;2.87;;;18.10;52.20;;;;;;10436764;28;20201;-59
2021/04/11 05:41:07;;;;;;;3.23;2.90;;;18.10;52.30;;;;;;10420773;28;20220;-56
2021/04/11 05:46:36;;;;;;;2.90;2.70;;;18.10;52.30;;;;;;10454608;28;20193;-59
2021/04/11 05:52:02;;;;;;;3.47;3.17;;;18.10;52.30;;;;;;10452175;28;20216;-58
2021/04/11 05:57:27;;;;;;;2.83;2.60;;;18.10;52.20;;;;;;10413303;28;20268;-60
2021/04/11 06:02:53;;;;;;;3.03;2.73;;;18.10;52.20;;;;;;10413198;28;20575;-59
2021/04/11 06:08:24;;;;;;;3.63;3.33;;;18.10;52.30;;;;;;10434918;28;20296;-56
2021/04/11 06:13:51;;;;;;;2.73;2.53;;;18.10;52.30;;;;;;10449259;22;20232;-67
2021/04/11 06:19:14;;;;;;;3.30;3.00;;;18.20;52.40;;;;;;10447323;28;20216;-67
2021/04/11 06:24:46;;;;;;;3.40;3.10;;;18.20;52.30;;;;;;10429823;28;20249;-67
2021/04/11 06:30:14;;;;;;;3.80;3.47;;;18.20;52.40;;;;;;10417151;28;20272;-67
2021/04/11 06:35:41;;;;;;;3.80;3.40;;;18.10;52.50;;;;;;10422483;28;20581;-67
2021/04/11 06:41:37;;;;;;;3.30;3.00;;;18.10;52.50;;;;;;10412135;28;20198;-67
2021/04/11 06:47:12;;;;;;;3.30;3.00;;;18.20;52.50;;;;;;10435248;28;20193;-67
2021/04/11 06:52:49;;;;;;;3.40;2.97;;;18.20;52.50;;;;;;10428433;28;20209;-67
2021/04/11 06:58:21;;;;;;;3.23;2.93;;;18.20;53.20;;;;;;10406447;28;20210;-67
2021/04/11 07:04:40;;;;;;;3.40;3.10;;;18.20;52.70;;;;;;10418436;28;20210;-67
2021/04/11 07:10:20;;;;;;;3.43;3.10;;;18.10;52.60;;;;;;10356388;28;20198;-67
2021/04/11 07:16:10;;;;;;;3.60;3.30;;;18.20;52.60;;;;;;10389313;28;20348;-67
2021/04/11 07:21:52;;;;;;;3.03;2.73;;;18.20;52.70;;;;;;10379464;28;20193;-67
2021/04/11 07:27:25;;;;;;;3.43;2.73;;;18.20;52.80;;;;;;10393252;28;20224;-68
2021/04/11 07:33:07;;;;;;;4.57;2.90;;;18.20;52.70;;;;;;10440966;28;20304;-68
2021/04/11 07:38:42;;;;;;;3.27;2.70;;;18.20;52.70;;;;;;10403218;28;20276;-67
2021/04/11 07:44:28;;;;;;;2.80;2.53;;;18.20;52.70;;;;;;10408252;28;20221;-67
2021/04/11 07:50:02;;;;;;;2.97;2.50;;;18.20;53.20;;;;;;10414407;28;20264;-68
2021/04/11 07:55:37;;;;;;;3.37;2.57;;;18.20;52.80;;;;;;10430738;28;20225;-68
2021/04/11 08:01:30;;;;;;;2.60;2.33;;;18.20;52.90;;;;;;10434143;28;20790;-67
2021/04/11 08:07:15;;;;;;;3.53;2.40;;;18.20;52.90;;;;;;10420174;28;20225;-67
2021/04/11 08:12:57;;;;;;;3.17;2.67;;;18.20;53.00;;;;;;10410548;28;20275;-67
2021/04/11 08:18:27;;;;;;;2.47;2.27;;;18.20;53.00;;;;;;10416907;28;20276;-67
2021/04/11 08:24:33;;;;;;;2.47;2.27;;;18.20;53.00;;;;;;10416252;28;20724;-68
2021/04/11 08:30:23;;;;;;;3.57;2.50;;;18.20;53.10;;;;;;10416613;28;20198;-66
2021/04/11 08:36:01;;;;;;;2.80;2.50;;;18.20;53.30;;;;;;10416341;28;20217;-68
2021/04/11 08:41:56;;;;;;;2.47;2.00;;;18.20;53.20;;;;;;10416857;28;20194;-67
2021/04/11 08:47:30;;;;;;;1.73;1.63;;;18.30;53.10;;;;;;10417393;28;20190;-67
2021/04/11 08:53:07;;;;;;;2.40;2.20;;;18.20;53.10;;;;;;10416949;28;20218;-68
2021/04/11 08:58:32;;;;;;;1.80;1.70;;;18.30;53.30;;;;;;10417063;28;20209;-67
2021/04/11 09:04:05;;;;;;;1.73;1.63;;;18.30;53.40;;;;;;10416981;28;20210;-66
2021/04/11 09:09:51;;;;;;;3.07;2.03;;;18.30;53.30;;;;;;10414453;28;20196;-68
2021/04/11 09:15:22;;;;;;;2.50;1.77;;;18.30;53.30;;;;;;10408560;28;20635;-67
2021/04/11 09:20:57;;;;;;;2.00;1.80;;;18.30;53.30;;;;;;10413500;28;20190;-67
2021/04/11 09:26:40;;;;;;;2.17;1.93;;;18.30;53.40;;;;;;10409920;28;20222;-67
2021/04/11 09:32:27;;;;;;;2.00;1.80;;;18.30;53.40;;;;;;10414933;28;20197;-67
2021/04/11 09:38:06;;;;;;;2.50;1.90;;;18.30;53.30;;;;;;10409635;28;20688;-66
2021/04/11 09:43:44;;;;;;;2.83;1.90;;;18.30;53.60;;;;;;10412747;28;20249;-67
2021/04/11 09:49:33;;;;;;;2.40;1.97;;;18.20;53.70;;;;;;10413958;28;20194;-67
2021/04/11 09:55:07;;;;;;;3.30;2.00;;;18.20;53.70;;;;;;10389188;28;20689;-66
2021/04/11 10:00:35;;;;;;;2.47;1.67;;;18.30;53.80;;;;;;10412241;28;20197;-68
2021/04/11 10:06:13;;;;;;;2.13;1.87;;;18.20;54.00;;;;;;10412600;28;20214;-66
2021/04/11 10:11:53;;;;;;;2.57;1.60;;;18.20;54.10;;;;;;10410739;28;20281;-67
2021/04/11 10:17:28;;;;;;;1.83;1.70;;;18.20;54.20;;;;;;10412902;28;20213;-67
2021/04/11 10:22:57;;;;;;;2.20;1.70;;;18.20;54.40;;;;;;10409163;28;20217;-67
2021/04/11 10:28:26;;;;;;;2.17;1.83;;;18.20;54.40;;;;;;10412012;28;20197;-67
2021/04/11 10:33:54;;;;;;;2.70;2.20;;;18.10;54.30;;;;;;10410483;28;20558;-67
2021/04/11 10:39:27;;;;;;;2.10;1.90;;;18.10;54.20;;;;;;10410915;28;20217;-67
2021/04/11 10:45:16;;;;;;;2.30;2.10;;;18.10;54.20;;;;;;10412084;28;20592;-67
2021/04/11 10:50:46;;;;;;;1.80;1.70;;;18.00;54.10;;;;;;10406879;28;20201;-67
2021/04/11 10:56:21;;;;;;;1.90;1.80;;;18.00;54.10;;;;;;10411337;28;20279;-68
2021/04/11 11:02:16;;;;;;;1.50;1.33;;;18.00;54.00;;;;;;10402353;28;20590;-67
2021/04/11 11:08:06;;;;;;;1.50;1.40;;;18.00;53.60;;;;;;10395320;28;20194;-67
2021/04/11 11:13:49;;;;;;;1.70;1.60;;;18.00;53.40;;;;;;10410116;28;20227;-67
2021/04/11 11:19:38;;;;;;;1.37;1.27;;;17.90;53.20;;;;;;10408555;28;20240;-67
2021/04/11 11:25:19;;;;;;;1.40;1.30;;;17.90;52.70;;;;;;10369937;28;20214;-67
2021/04/11 11:31:07;;;;;;;1.50;1.40;;;17.90;52.40;;;;;;10388986;28;20613;-67
2021/04/11 11:36:37;;;;;;;2.10;1.70;;;17.90;52.20;;;;;;10409596;28;20712;-67
2021/04/11 11:42:08;;;;;;;1.83;1.63;;;17.80;51.80;;;;;;10408046;28;20738;-67
2021/04/11 11:47:38;;;;;;;1.97;1.77;;;17.80;51.50;;;;;;10411021;28;20198;-67
2021/04/11 11:53:06;;;;;;;1.80;1.70;;;17.80;51.00;;;;;;10406510;28;20418;-67
2021/04/11 11:58:37;;;;;;;1.50;1.40;;;19.00;48.30;;;;;;10409087;28;20696;-66
2021/04/11 12:04:14;;;;;;;3.70;1.50;;;18.20;49.90;;;;;;10410799;28;20214;-67
2021/04/11 12:09:41;;;;;;;2.67;2.20;;;17.90;50.50;;;;;;10409165;28;20201;-66
2021/04/11 12:15:08;;;;;;;3.63;2.03;;;17.80;50.50;;;;;;10439870;22;20255;-62
2021/04/11 12:20:38;;;;;;;1.50;1.40;;;17.80;50.20;;;;;;10406779;28;20291;-60
2021/04/11 12:26:09;;;;;;;2.03;1.83;;;17.80;50.00;;;;;;10442638;28;20200;-62
2021/04/11 12:31:36;;;;;;;1.83;1.50;;;17.70;49.60;;;;;;10447111;28;20217;-61
2021/04/11 12:37:10;;;;;;;1.23;1.13;;;17.70;49.50;;;;;;10447761;28;20216;-61
2021/04/11 12:42:38;;;;;;;1.57;1.20;;;17.70;49.20;;;;;;10435025;28;20218;-60
2021/04/11 12:48:10;;;;;;;1.77;1.30;;;17.70;49.10;;;;;;10415171;28;20194;-60
2021/04/11 12:53:45;;;;;;;2.27;1.50;;;17.70;48.80;;;;;;10411828;28;20582;-61
2021/04/11 12:59:14;;;;;;;2.10;1.90;;;17.60;48.80;;;;;;10413135;28;20276;-62
2021/04/11 13:04:40;;;;;;;1.30;1.20;;;17.40;48.20;;;;;;10414220;28;20268;-61
2021/04/11 13:10:14;;;;;;;1.30;1.20;;;17.40;48.30;;;;;;10412420;28;20221;-61
2021/04/11 13:15:41;;;;;;;2.20;1.17;;;17.30;47.80;;;;;;10409315;28;20288;-62
2021/04/11 13:21:14;;;;;;;1.73;1.13;;;17.30;47.60;;;;;;10413825;28;20221;-61
2021/04/11 13:26:44;;;;;;;1.00;0.80;;;17.50;47.70;;;;;;10413325;28;20236;-60
2021/04/11 13:32:17;;;;;;;1.40;1.00;;;17.70;48.10;;;;;;10439499;28;20221;-59
2021/04/11 13:37:47;;;;;;;1.17;0.80;;;17.70;48.40;;;;;;10452313;28;20213;-61
2021/04/11 13:43:23;;;;;;;2.87;1.00;;;17.80;48.80;;;;;;10412334;28;20206;-60
2021/04/11 13:48:57;;;;;;;1.93;0.80;;;17.80;48.90;;;;;;10412805;28;20662;-60
2021/04/11 13:54:28;;;;;;;1.70;0.80;;;17.80;49.10;;;;;;10413253;28;20295;-61
2021/04/11 14:00:00;;;;;;;1.37;0.60;;;17.90;49.10;;;;;;10434615;28;20225;-60
2021/04/11 14:05:25;;;;;;;1.00;0.70;;;17.90;49.30;;;;;;10452781;28;20205;-61
2021/04/11 14:10:52;;;;;;;1.13;0.80;;;17.90;49.30;;;;;;10452429;28;20209;-60
2021/04/11 14:16:18;;;;;;;1.70;0.70;;;17.90;49.50;;;;;;10452615;28;20213;-62
2021/04/11 14:21:45;;;;;;;0.60;0.50;;;18.00;49.50;;;;;;10452281;28;20275;-62
2021/04/11 14:27:17;;;;;;;0.80;0.70;;;18.00;49.60;;;;;;10452768;28;20657;-62
2021/04/11 14:32:43;;;;;;;0.60;0.60;;;18.00;49.50;;;;;;10451618;28;20237;-61
2021/04/11 14:38:18;;;;;;;0.90;0.63;;;18.00;49.60;;;;;;10452368;28;20263;-61
2021/04/11 14:43:44;;;;;;;0.60;0.60;;;18.00;49.60;;;;;;10410696;28;20217;-61
2021/04/11 14:49:08;;;;;;;0.70;0.40;;;18.00;49.80;;;;;;10410783;28;20190;-62
2021/04/11 14:54:37;;;;;;;0.43;0.43;;;18.10;49.80;;;;;;10411255;28;20588;-63
2021/04/11 15:00:08;;;;;;;0.73;0.50;;;18.10;49.70;;;;;;10408261;28;20229;-60
2021/04/11 15:05:35;;;;;;;1.10;0.60;;;18.10;49.70;;;;;;10403266;28;20225;-61
2021/04/11 15:11:05;;;;;;;0.60;0.60;;;18.00;49.70;;;;;;10408130;28;20218;-61
2021/04/11 15:16:36;;;;;;;0.70;0.50;;;18.10;49.70;;;;;;10443646;28;20488;-61
2021/04/11 15:22:04;;;;;;;1.00;0.50;;;18.10;49.70;;;;;;10447245;28;20216;-61
2021/04/11 15:27:31;;;;;;;0.73;0.40;;;18.10;49.80;;;;;;10446667;28;20555;-62
2021/04/11 15:33:07;;;;;;;0.50;0.40;;;18.10;49.90;;;;;;10445472;28;20217;-61
2021/04/11 15:38:35;;;;;;;6.83;1.00;;;18.10;50.30;;;;;;10447315;28;20217;-60
2021/04/11 15:44:00;;;;;;;5.90;1.07;;;18.10;51.90;;;;;;10444727;28;20224;-62
2021/04/11 15:49:29;;;;;;;4.37;0.80;;;18.10;51.40;;;;;;10410504;28;20200;-62
2021/04/11 15:55:04;;;;;;;2.60;0.80;;;18.10;51.30;;;;;;10405285;28;20586;-63
2021/04/11 16:00:32;;;;;;;5.53;1.07;;;18.10;51.30;;;;;;10405803;28;20209;-60
2021/04/11 16:06:01;;;;;;;2.07;0.90;;;18.10;51.00;;;;;;10407153;28;20182;-61
2021/04/11 16:11:32;;;;;;;0.90;0.50;;;18.10;50.80;;;;;;10406024;28;20225;-62
2021/04/11 16:17:10;;;;;;;2.60;0.63;;;18.20;50.70;;;;;;10388235;28;560116;-63
2021/04/11 16:22:48;;;;;;;1.57;0.60;;;18.20;50.50;;;;;;10425175;28;20225;-62
2021/04/11 16:28:31;;;;;;;2.93;0.70;;;18.30;50.50;;;;;;10458190;28;20189;-62
2021/04/11 16:34:27;;;;;;;0.93;0.80;;;18.30;50.80;;;;;;10413431;28;20715;-62
2021/04/11 16:39:57;;;;;;;1.40;0.60;;;18.30;51.00;;;;;;10339611;28;20234;-62
2021/04/11 16:45:24;;;;;;;1.13;0.70;;;18.30;51.00;;;;;;10375545;28;20240;-62
2021/04/11 16:50:50;;;;;;;2.93;0.57;;;18.30;51.00;;;;;;10374722;28;20218;-61
2021/04/11 16:56:20;;;;;;;2.73;0.70;;;18.40;51.10;;;;;;10373621;28;20210;-61
2021/04/11 17:01:51;;;;;;;1.43;0.90;;;18.30;51.20;;;;;;10372815;28;20214;-60
2021/04/11 17:07:19;;;;;;;2.27;0.90;;;18.30;50.90;;;;;;10373885;28;20309;-61
2021/04/11 17:12:46;;;;;;;3.50;0.90;;;18.30;51.10;;;;;;10373030;28;20211;-60
2021/04/11 17:18:15;;;;;;;1.30;0.80;;;18.30;51.20;;;;;;10369716;28;20215;-61
2021/04/11 17:23:40;;;;;;;1.57;0.90;;;18.30;51.10;;;;;;10372782;28;20215;-60
2021/04/11 17:29:09;;;;;;;1.20;0.90;;;18.40;51.30;;;;;;10371653;28;20241;-63
2021/04/11 17:34:42;;;;;;;2.00;1.27;;;18.40;51.40;;;;;;10371563;28;20253;-62
2021/04/11 17:40:07;;;;;;;5.40;1.60;;;18.30;50.40;;;;;;10369173;28;20438;-62
2021/04/11 17:45:35;;;;;;;6.70;2.93;;;19.60;45.50;;;;;;10373093;28;20195;-64
2021/04/11 17:51:12;;;;;;;3.10;1.73;;;18.60;46.10;;;;;;10371543;28;20553;-62
2021/04/11 17:56:44;;;;;;;2.30;1.37;;;18.30;46.10;;;;;;10371505;28;20618;-62
2021/04/11 18:02:16;;;;;;;2.10;1.00;;;18.20;46.30;;;;;;10370258;28;20210;-62
2021/04/11 18:07:46;;;;;;;1.50;1.03;;;18.20;47.80;;;;;;10365098;28;20210;-61
2021/04/11 18:13:17;;;;;;;3.43;2.10;;;18.10;45.40;;;;;;10363386;28;20523;-61
2021/04/11 18:18:52;;;;;;;2.53;1.40;;;18.10;43.40;;;;;;10362991;28;20241;-62
2021/04/11 18:24:20;;;;;;;1.30;1.10;;;18.00;42.50;;;;;;10364696;28;20210;-62
2021/04/11 18:29:47;;;;;;;1.20;0.87;;;17.70;42.20;;;;;;10364863;28;20190;-62
2021/04/11 18:35:19;;;;;;;2.23;1.20;;;17.70;41.80;;;;;;10364270;28;20210;-62
2021/04/11 18:40:48;;;;;;;3.88;1.70;;;17.70;41.80;;;;;;10361884;28;20435;-62
2021/04/11 18:46:14;;;;;;;2.97;1.60;;;18.50;40.20;;;;;;10364771;28;20656;-61
2021/04/11 18:51:44;;;;;;;3.10;1.00;;;17.90;41.90;;;;;;10364199;28;20242;-61
2021/04/11 18:57:15;;;;;;;1.50;1.00;;;17.70;42.60;;;;;;10381545;22;20320;-68
2021/04/11 19:02:53;;;;;;;5.23;1.10;;;17.80;42.90;;;;;;10367234;28;20194;-68
2021/04/11 19:08:34;;;;;;;2.50;0.57;;;17.90;43.50;;;;;;10378742;28;20206;-67
2021/04/11 19:14:29;;;;;;;1.83;1.00;;;18.00;44.20;;;;;;10371205;28;20195;-67
2021/04/11 19:20:01;;;;;;;2.13;1.10;;;18.10;44.80;;;;;;10368787;28;20215;-67
2021/04/11 19:25:49;;;;;;;3.47;1.10;;;18.10;46.00;;;;;;10355811;28;20790;-67
2021/04/11 19:31:40;;;;;;;7.60;1.17;;;18.10;45.70;;;;;;10329264;28;20222;-67
2021/04/11 19:37:19;;;;;;;1.63;0.70;;;18.20;46.10;;;;;;10330743;28;20334;-67
2021/04/11 19:43:10;;;;;;;2.03;0.73;;;18.20;46.40;;;;;;10394358;28;20202;-67
2021/04/11 19:49:04;;;;;;;1.27;0.70;;;18.20;46.70;;;;;;10370716;28;20211;-67
2021/04/11 19:54:28;;;;;;;1.43;0.73;;;18.20;46.90;;;;;;10359382;28;20195;-67
2021/04/11 20:00:19;;;;;;;1.70;0.70;;;18.20;47.10;;;;;;10377421;28;20256;-67
2021/04/11 20:06:22;;;;;;;2.20;0.80;;;18.30;47.30;;;;;;10389551;28;20628;-67
2021/04/11 20:12:04;;;;;;;1.00;0.80;;;18.30;47.50;;;;;;10419942;28;20205;-67
2021/04/11 20:17:34;;;;;;;1.17;0.80;;;18.30;47.70;;;;;;10378962;28;20268;-67
2021/04/11 20:23:25;;;;;;;1.63;1.00;;;18.30;47.80;;;;;;10396475;28;20666;-67
2021/04/11 20:29:07;;;;;;;2.77;0.70;;;18.30;47.90;;;;;;10416492;28;20213;-67
2021/04/11 20:34:58;;;;;;;0.70;0.63;;;18.30;47.90;;;;;;10418244;28;20196;-67
2021/04/11 20:40:32;;;;;;;0.83;0.50;;;18.30;48.20;;;;;;10417816;28;20214;-67
2021/04/11 20:46:11;;;;;;;1.33;0.67;;;18.30;48.30;;;;;;10366203;28;20217;-67
2021/04/11 20:51:42;;;;;;;1.30;0.67;;;18.30;48.50;;;;;;10358022;28;20198;-67
2021/04/11 20:57:16;;;;;;;0.97;0.53;;;18.30;48.60;;;;;;10417312;28;20222;-67
2021/04/11 21:02:51;;;;;;;1.10;0.50;;;18.20;48.80;;;;;;10392566;28;20578;-67
2021/04/11 21:08:24;;;;;;;0.97;0.57;;;18.30;48.90;;;;;;10416825;28;20585;-68
2021/04/11 21:14:09;;;;;;;1.03;0.60;;;18.20;48.80;;;;;;10417245;28;20307;-67
2021/04/11 21:19:59;;;;;;;1.60;0.63;;;18.20;48.90;;;;;;10416332;28;20217;-67
2021/04/11 21:25:25;;;;;;;0.90;0.50;;;18.20;49.00;;;;;;10416133;28;20235;-67
2021/04/11 21:31:12;;;;;;;0.80;0.53;;;18.20;49.00;;;;;;10379574;28;20237;-67
2021/04/11 21:36:39;;;;;;;1.17;0.60;;;18.30;49.20;;;;;;10334321;28;20586;-67
2021/04/11 21:42:08;;;;;;;1.63;0.70;;;18.20;49.20;;;;;;10368760;28;20198;-67
2021/04/11 21:47:36;;;;;;;0.90;0.50;;;18.20;49.30;;;;;;10372832;28;20209;-67
2021/04/11 21:53:07;;;;;;;0.60;0.40;;;18.20;49.30;;;;;;10373709;28;20264;-67
2021/04/11 21:59:03;;;;;;;1.30;0.60;;;18.20;49.40;;;;;;10347157;28;20309;-68
2021/04/11 22:04:33;;;;;;;2.53;0.50;;;18.30;50.10;;;;;;10371430;28;20195;-67
2021/04/11 22:10:03;;;;;;;0.63;0.47;;;18.20;49.60;;;;;;10373720;28;20194;-67
2021/04/11 22:15:31;;;;;;;1.10;0.70;;;18.20;49.60;;;;;;10371334;28;20269;-68
2021/04/11 22:20:57;;;;;;;1.00;0.50;;;18.20;49.60;;;;;;10372427;28;20219;-68
2021/04/11 22:26:22;;;;;;;0.87;0.40;;;18.20;49.70;;;;;;10372737;28;20222;-67
2021/04/11 22:31:51;;;;;;;0.70;0.40;;;18.20;49.80;;;;;;10371158;28;20213;-67
2021/04/11 22:37:18;;;;;;;2.70;0.63;;;18.20;49.70;;;;;;10372116;28;20273;-67
2021/04/11 22:42:44;;;;;;;1.23;0.47;;;18.20;49.80;;;;;;10371156;28;20759;-67
2021/04/11 22:48:12;;;;;;;0.77;0.30;;;18.20;49.80;;;;;;10331696;28;20586;-67
2021/04/11 22:53:38;;;;;;;0.87;0.50;;;18.20;49.90;;;;;;10349778;28;20190;-67
2021/04/11 22:59:08;;;;;;;0.77;0.40;;;18.20;49.90;;;;;;10350994;28;20215;-67
2021/04/11 23:04:33;;;;;;;1.33;0.60;;;18.20;49.90;;;;;;10366891;28;20194;-67
2021/04/11 23:10:01;;;;;;;1.17;0.43;;;18.20;50.00;;;;;;10371551;28;20245;-67
2021/04/11 23:15:38;;;;;;;0.73;0.40;;;18.20;50.10;;;;;;10364314;28;20293;-67
2021/04/11 23:21:08;;;;;;;0.80;0.30;;;18.20;50.00;;;;;;10362258;28;20595;-67
2021/04/11 23:26:37;;;;;;;1.00;0.33;;;18.20;50.10;;;;;;10333470;28;20215;-67
2021/04/11 23:32:02;;;;;;;0.93;0.50;;;18.20;50.10;;;;;;10336486;28;20701;-67
2021/04/11 23:37:31;;;;;;;0.30;0.30;;;18.20;50.20;;;;;;10357136;28;20230;-67
2021/04/11 23:42:58;;;;;;;0.87;0.40;;;18.20;50.20;;;;;;10346401;28;20206;-67
2021/04/11 23:48:31;;;;;;;0.47;0.30;;;18.20;50.20;;;;;;10370655;28;20689;-67
2021/04/11 23:54:13;;;;;;;0.83;0.43;;;18.20;50.20;;;;;;10339772;28;20234;-67
2021/04/11 23:59:42;;;;;;;1.43;0.40;;;18.20;50.30;;;;;;10336808;28;20214;-67
